Time;durP1;ratioP1;P1;durP2;ratioP2;P2;SDS_P1;SDS_P2;PMS_P1;PMS_P2;Temp;Humidity;BMP_temperature;BMP_pressure;BME280_temperature;BME280_humidity;BME280_pressure;Samples;Min_cycle;Max_cycle;Signal;HPM_P1;HPM_P2
2022/09/29 00:00:15;;;;;;;0.40;0.40;;;;;;;9.01;74.12;99160.50;5077438;28;20017;-67
2022/09/29 00:02:40;;;;;;;0.40;0.40;;;;;;;8.97;74.57;99162.31;5077651;28;20021;-66
2022/09/29 00:05:06;;;;;;;0.40;0.40;;;;;;;8.97;74.33;99170.06;5068224;28;20484;-67
2022/09/29 00:07:32;;;;;;;0.40;0.40;;;;;;;8.96;74.30;99175.28;5066996;28;20025;-68
2022/09/29 00:09:57;;;;;;;0.40;0.40;;;;;;;8.96;74.44;99175.28;5066933;28;20025;-67
2022/09/29 00:12:23;;;;;;;0.40;0.40;;;;;;;8.91;74.64;99178.81;5067127;28;20025;-66
2022/09/29 00:14:49;;;;;;;0.40;0.40;;;;;;;8.93;74.45;99168.41;5066845;28;20084;-67
2022/09/29 00:17:15;;;;;;;0.50;0.50;;;;;;;8.90;74.56;99174.53;5066644;28;20028;-66
2022/09/29 00:19:40;;;;;;;0.50;0.50;;;;;;;8.83;74.73;99170.38;5066726;28;20044;-66
2022/09/29 00:22:06;;;;;;;0.50;0.50;;;;;;;8.77;75.08;99170.50;5066600;28;20052;-66
2022/09/29 00:24:31;;;;;;;0.40;0.40;;;;;;;8.82;75.13;99173.81;5066387;28;20083;-67
2022/09/29 00:26:56;;;;;;;0.40;0.40;;;;;;;8.78;75.14;99169.63;5065955;28;20029;-66
2022/09/29 00:29:22;;;;;;;0.50;0.50;;;;;;;8.77;75.13;99166.16;5066350;28;20048;-67
2022/09/29 00:31:48;;;;;;;0.50;0.50;;;;;;;8.75;75.49;99165.38;5065915;28;20029;-66
2022/09/29 00:34:13;;;;;;;0.50;0.50;;;;;;;8.73;75.42;99163.69;5065719;28;20081;-66
2022/09/29 00:36:40;;;;;;;0.50;0.50;;;;;;;8.71;75.43;99153.34;5066241;28;20043;-66
2022/09/29 00:39:05;;;;;;;0.43;0.43;;;;;;;8.73;75.54;99149.00;5066520;28;20029;-67
2022/09/29 00:41:33;;;;;;;0.40;0.40;;;;;;;8.73;75.65;99161.94;5066338;28;20029;-68
2022/09/29 00:44:06;;;;;;;0.45;0.45;;;;;;;8.71;75.83;99144.72;5064915;28;20033;-67
2022/09/29 00:46:35;;;;;;;0.50;0.50;;;;;;;8.73;75.75;99140.38;5065943;28;20029;-66
2022/09/29 00:49:22;;;;;;;0.38;0.38;;;;;;;8.74;75.84;99147.28;5066357;28;20041;-66
2022/09/29 00:52:00;;;;;;;0.50;0.50;;;;;;;8.76;75.77;99155.84;5066168;28;20028;-66
2022/09/29 00:54:30;;;;;;;0.40;0.40;;;;;;;8.72;75.74;99164.56;5065819;28;20406;-66
2022/09/29 00:56:56;;;;;;;0.40;0.40;;;;;;;8.76;75.84;99156.72;5066065;28;20027;-67
2022/09/29 00:59:34;;;;;;;0.40;0.40;;;;;;;8.75;76.02;99162.78;5064785;28;20080;-67
2022/09/29 01:02:00;;;;;;;0.50;0.50;;;;;;;8.75;76.12;99164.50;5065842;28;20037;-66
2022/09/29 01:04:26;;;;;;;0.40;0.40;;;;;;;8.78;76.23;99161.84;5065745;28;20053;-66
2022/09/29 01:06:56;;;;;;;0.40;0.40;;;;;;;8.76;76.44;99173.97;5065985;28;20029;-66
2022/09/29 01:09:27;;;;;;;0.40;0.40;;;;;;;8.72;76.40;99147.28;5066054;28;20438;-66
2022/09/29 01:11:57;;;;;;;0.50;0.50;;;;;;;8.73;76.28;99154.19;5065819;28;20029;-66
2022/09/29 01:14:23;;;;;;;0.50;0.50;;;;;;;8.78;76.52;99167.03;5065549;28;20063;-66
2022/09/29 01:16:48;;;;;;;0.40;0.40;;;;;;;8.74;76.49;99166.22;5065533;28;20033;-66
2022/09/29 01:19:22;;;;;;;0.50;0.50;;;;;;;8.76;76.70;99159.28;5065598;28;20060;-66
2022/09/29 01:22:17;;;;;;;0.50;0.50;;;;;;;8.70;76.84;99164.59;5065618;28;20115;-66
2022/09/29 01:25:01;;;;;;;0.40;0.40;;;;;;;8.72;76.74;99167.16;5056508;28;20055;-66
2022/09/29 01:27:26;;;;;;;0.50;0.50;;;;;;;8.72;76.74;99159.41;5064290;28;20029;-66
2022/09/29 01:29:58;;;;;;;0.50;0.50;;;;;;;8.66;76.87;99160.34;5065304;28;20021;-66
2022/09/29 01:32:45;;;;;;;0.50;0.50;;;;;;;8.67;76.89;99162.91;5065504;28;20127;-66
2022/09/29 01:35:35;;;;;;;0.50;0.50;;;;;;;8.60;77.11;99152.72;5065415;28;20473;-66
2022/09/29 01:38:13;;;;;;;0.50;0.50;;;;;;;8.50;77.31;99152.88;5065579;28;20032;-67
2022/09/29 01:41:01;;;;;;;0.40;0.40;;;;;;;8.49;77.10;99145.16;5064530;28;20057;-67
2022/09/29 01:43:54;;;;;;;0.43;0.43;;;;;;;8.57;77.31;99165.72;5065447;28;20039;-66
2022/09/29 01:46:25;;;;;;;0.50;0.50;;;;;;;8.55;77.29;99173.50;5064149;28;20044;-65
2022/09/29 01:48:54;;;;;;;0.45;0.45;;;;;;;8.59;77.38;99161.38;5063676;28;20059;-66
2022/09/29 01:51:29;;;;;;;0.47;0.47;;;;;;;8.58;77.55;99170.88;5065146;28;20047;-66
2022/09/29 01:54:00;;;;;;;0.82;0.82;;;;;;;8.58;77.76;99163.09;5065220;28;20088;-66
2022/09/29 01:56:38;;;;;;;0.50;0.50;;;;;;;8.57;77.92;99158.81;5064946;28;20025;-66
2022/09/29 01:59:14;;;;;;;0.50;0.50;;;;;;;8.52;78.13;99147.69;5064956;28;20064;-66
2022/09/29 02:01:43;;;;;;;0.40;0.40;;;;;;;8.55;78.41;99170.94;5064867;28;20462;-65
2022/09/29 02:04:28;;;;;;;0.43;0.43;;;;;;;8.63;78.37;99155.25;5064304;28;20049;-66
2022/09/29 02:07:00;;;;;;;0.40;0.40;;;;;;;8.60;78.25;99163.94;5063573;28;20033;-67
2022/09/29 02:09:32;;;;;;;0.50;0.50;;;;;;;8.56;78.43;99157.13;5065097;28;20025;-67
2022/09/29 02:12:02;;;;;;;0.50;0.50;;;;;;;8.63;78.14;99170.75;5065172;28;20032;-66
2022/09/29 02:14:35;;;;;;;0.65;0.65;;;;;;;8.56;78.71;99159.72;5065007;28;20029;-65
2022/09/29 02:17:12;;;;;;;0.50;0.50;;;;;;;8.66;78.74;99175.88;5065027;28;20512;-67
2022/09/29 02:19:41;;;;;;;0.57;0.57;;;;;;;8.69;78.74;99173.22;5065087;28;20442;-66
2022/09/29 02:22:07;;;;;;;0.40;0.40;;;;;;;8.69;78.66;99170.63;5064956;28;20021;-66
2022/09/29 02:24:32;;;;;;;0.50;0.50;;;;;;;8.76;78.33;99180.00;5064644;28;20021;-67
2022/09/29 02:26:58;;;;;;;0.50;0.50;;;;;;;8.80;78.13;99178.22;5064417;28;20021;-67
2022/09/29 02:29:46;;;;;;;0.45;0.45;;;;;;;8.50;78.34;99121.84;5064645;28;20024;-69
2022/09/29 02:32:13;;;;;;;0.40;0.40;;;;;;;8.73;78.26;99154.19;5052014;28;20032;-66
2022/09/29 02:34:44;;;;;;;0.43;0.43;;;;;;;8.74;78.25;99166.22;5064455;28;20486;-66
2022/09/29 02:37:19;;;;;;;0.40;0.40;;;;;;;8.80;78.31;99163.50;5064580;28;20021;-66
2022/09/29 02:39:57;;;;;;;0.70;0.70;;;;;;;8.79;78.35;99167.00;5064877;28;20025;-66
2022/09/29 02:42:35;;;;;;;0.47;0.47;;;;;;;8.81;78.37;99166.97;5064698;28;20021;-66
2022/09/29 02:45:12;;;;;;;0.50;0.50;;;;;;;8.81;78.54;99151.44;5064796;28;20027;-65
2022/09/29 02:48:18;;;;;;;0.40;0.40;;;;;;;8.82;78.47;99158.31;5064505;28;20029;-66
2022/09/29 02:50:55;;;;;;;0.40;0.40;;;;;;;8.82;78.23;99162.66;5063630;28;20507;-67
2022/09/29 02:53:35;;;;;;;0.40;0.40;;;;;;;8.82;78.54;99165.22;5068592;28;20453;-67
2022/09/29 02:56:29;;;;;;;3.28;1.75;;;;;;;8.86;78.51;99164.28;5068504;28;20025;-67
2022/09/29 02:59:36;;;;;;;0.50;0.50;;;;;;;8.88;78.47;99165.94;5054029;28;20051;-67
2022/09/29 03:02:01;;;;;;;0.50;0.50;;;;;;;8.90;78.42;99173.66;4986766;28;20034;-67
2022/09/29 03:04:27;;;;;;;0.50;0.50;;;;;;;8.90;78.44;99165.91;4986994;28;20053;-67
2022/09/29 03:06:53;;;;;;;0.50;0.50;;;;;;;8.88;78.42;99183.22;4986933;28;20545;-67
2022/09/29 03:09:19;;;;;;;0.43;0.43;;;;;;;8.85;78.63;99178.09;4987007;28;20129;-66
2022/09/29 03:11:44;;;;;;;0.40;0.40;;;;;;;8.93;78.49;99176.19;4985964;28;20065;-67
2022/09/29 03:14:10;;;;;;;0.40;0.40;;;;;;;9.00;78.44;99184.69;4986963;28;20222;-67
2022/09/29 03:16:36;;;;;;;0.40;0.40;;;;;;;9.04;78.62;99176.81;4986776;28;20027;-67
2022/09/29 03:19:04;;;;;;;0.40;0.40;;;;;;;9.10;78.44;99182.75;4986648;28;20410;-67
2022/09/29 03:21:30;;;;;;;0.50;0.50;;;;;;;9.18;78.29;99180.84;4986919;28;20023;-67
2022/09/29 03:23:55;;;;;;;0.55;0.55;;;;;;;9.23;78.05;99191.97;4986844;28;20038;-67
2022/09/29 03:26:22;;;;;;;0.40;0.40;;;;;;;9.27;78.02;99187.53;4986202;28;20037;-67
2022/09/29 03:28:48;;;;;;;0.40;0.40;;;;;;;9.33;77.56;99187.41;4984875;28;20054;-67
2022/09/29 03:31:14;;;;;;;0.40;0.40;;;;;;;9.30;77.77;99196.09;4985564;28;20043;-68
2022/09/29 03:33:39;;;;;;;0.43;0.43;;;;;;;9.30;77.77;99184.88;4986582;28;20030;-67
2022/09/29 03:36:05;;;;;;;0.40;0.40;;;;;;;9.39;77.42;99204.56;4986065;28;20030;-68
2022/09/29 03:38:32;;;;;;;0.52;0.52;;;;;;;9.42;77.54;99188.94;5062935;28;20037;-67
2022/09/29 03:40:58;;;;;;;0.60;0.60;;;;;;;9.40;77.30;99190.69;5067699;28;20477;-67
2022/09/29 03:43:23;;;;;;;0.40;0.40;;;;;;;9.48;77.03;99191.38;5067286;28;20029;-67
2022/09/29 03:45:50;;;;;;;0.93;0.93;;;;;;;9.53;76.68;99206.81;5066160;28;20029;-67
2022/09/29 03:48:16;;;;;;;0.40;0.40;;;;;;;9.55;76.47;99187.75;5067397;28;20025;-67
2022/09/29 03:50:43;;;;;;;0.40;0.40;;;;;;;9.58;76.54;99199.78;5067355;28;20025;-67
2022/09/29 03:53:08;;;;;;;0.40;0.40;;;;;;;9.55;76.12;99185.16;5067409;28;20025;-68
2022/09/29 03:55:33;;;;;;;0.40;0.40;;;;;;;9.56;76.15;99232.66;5065970;28;20032;-68
2022/09/29 03:57:59;;;;;;;7.70;3.17;;;;;;;9.55;75.80;99187.75;5067184;28;20044;-67
2022/09/29 04:00:24;;;;;;;0.50;0.50;;;;;;;9.60;75.55;99182.44;5067170;28;20032;-68
2022/09/29 04:02:49;;;;;;;0.50;0.50;;;;;;;9.48;75.91;99182.75;5065161;28;20028;-69
2022/09/29 04:05:17;;;;;;;0.43;0.43;;;;;;;9.45;75.96;99188.00;5067036;28;20029;-67
2022/09/29 04:07:42;;;;;;;0.47;0.47;;;;;;;9.39;76.19;99192.44;5066779;28;20021;-66
2022/09/29 04:10:08;;;;;;;0.77;0.77;;;;;;;9.42;75.87;99194.94;5066741;28;20099;-66
2022/09/29 04:12:33;;;;;;;0.40;0.40;;;;;;;9.37;76.21;99195.94;5066907;28;20358;-66
2022/09/29 04:14:59;;;;;;;0.40;0.40;;;;;;;9.44;76.18;99204.44;5066711;28;20032;-67
2022/09/29 04:17:24;;;;;;;0.43;0.43;;;;;;;9.38;76.28;99219.22;5066795;28;20815;-66
2022/09/29 04:19:50;;;;;;;0.60;0.60;;;;;;;9.37;76.49;99201.13;5067141;28;20045;-67
2022/09/29 04:22:18;;;;;;;0.50;0.50;;;;;;;9.38;76.14;99201.09;5067247;28;20077;-66
2022/09/29 04:24:44;;;;;;;0.50;0.50;;;;;;;9.34;76.11;99211.56;5066999;28;20025;-66
2022/09/29 04:27:10;;;;;;;0.93;0.93;;;;;;;9.29;76.28;99202.16;5066672;28;20053;-67
2022/09/29 04:29:35;;;;;;;0.50;0.50;;;;;;;9.26;76.26;99199.66;5066625;28;20052;-67
2022/09/29 04:32:00;;;;;;;0.47;0.47;;;;;;;9.28;76.37;99213.41;5066778;28;20024;-66
2022/09/29 04:34:26;;;;;;;0.50;0.50;;;;;;;9.38;75.95;99211.47;5066440;28;20108;-65
2022/09/29 04:36:52;;;;;;;0.43;0.43;;;;;;;9.29;76.46;99204.75;5066508;28;20044;-67
2022/09/29 04:39:17;;;;;;;0.60;0.60;;;;;;;9.31;76.06;99212.50;5066345;28;20044;-66
2022/09/29 04:41:42;;;;;;;0.40;0.40;;;;;;;9.28;76.10;99213.41;5066904;28;20397;-65
2022/09/29 04:44:08;;;;;;;0.80;0.80;;;;;;;9.25;76.04;99218.66;5066498;28;20124;-65
2022/09/29 04:46:33;;;;;;;0.43;0.43;;;;;;;9.24;76.27;99201.41;5066388;28;20024;-65
2022/09/29 04:48:58;;;;;;;0.40;0.40;;;;;;;9.24;75.73;99216.09;5065627;28;20024;-66
2022/09/29 04:51:24;;;;;;;0.45;0.45;;;;;;;9.20;76.23;99214.47;5066509;28;20095;-66
2022/09/29 04:53:52;;;;;;;0.60;0.60;;;;;;;9.12;76.19;99219.81;5066396;28;20088;-66
2022/09/29 04:56:17;;;;;;;1.60;1.50;;;;;;;9.03;76.55;99208.78;5066337;28;20055;-66
2022/09/29 04:58:42;;;;;;;0.50;0.50;;;;;;;8.96;76.72;99222.72;5065849;28;20021;-65
2022/09/29 05:01:13;;;;;;;0.40;0.40;;;;;;;9.00;76.75;99233.84;5066222;28;20048;-68
2022/09/29 05:03:38;;;;;;;0.40;0.40;;;;;;;8.89;77.00;99216.84;5066131;28;20032;-68
2022/09/29 05:06:04;;;;;;;0.40;0.40;;;;;;;8.92;77.22;99246.97;5063859;28;20020;-67
2022/09/29 05:08:30;;;;;;;0.50;0.50;;;;;;;8.95;76.97;99230.50;5064927;28;20032;-67
2022/09/29 05:10:56;;;;;;;0.47;0.47;;;;;;;8.88;77.40;99233.22;5065678;28;20025;-65
2022/09/29 05:13:21;;;;;;;0.40;0.40;;;;;;;8.86;77.42;99214.31;5065852;28;20024;-67
2022/09/29 05:15:46;;;;;;;0.40;0.40;;;;;;;8.79;77.44;99212.72;5065893;28;20040;-66
2022/09/29 05:18:12;;;;;;;0.40;0.40;;;;;;;8.77;77.44;99201.56;5065618;28;20059;-69
2022/09/29 05:20:37;;;;;;;0.40;0.40;;;;;;;8.81;77.90;99221.31;5065913;28;20049;-69
2022/09/29 05:23:08;;;;;;;0.40;0.40;;;;;;;8.77;78.04;99224.84;5065817;28;20393;-69
2022/09/29 05:25:34;;;;;;;0.40;0.40;;;;;;;8.79;77.62;99221.34;5065969;28;20029;-70
2022/09/29 05:28:00;;;;;;;0.40;0.40;;;;;;;8.83;77.72;99232.50;5065556;28;20385;-69
2022/09/29 05:30:25;;;;;;;0.50;0.50;;;;;;;8.82;77.91;99246.28;5065477;28;20021;-69
2022/09/29 05:32:51;;;;;;;0.40;0.40;;;;;;;8.83;78.11;99235.06;5065751;28;20051;-68
2022/09/29 05:35:16;;;;;;;0.50;0.50;;;;;;;8.85;78.00;99235.88;5065803;28;20025;-69
2022/09/29 05:37:42;;;;;;;0.60;0.60;;;;;;;8.87;77.65;99228.06;5065082;28;20023;-68
2022/09/29 05:40:07;;;;;;;0.40;0.40;;;;;;;8.84;77.71;99234.19;5065523;28;20583;-68
2022/09/29 05:42:33;;;;;;;0.50;0.50;;;;;;;8.85;78.03;99233.28;5064499;28;20059;-70
2022/09/29 05:44:59;;;;;;;0.40;0.40;;;;;;;8.92;78.19;99232.28;5064328;28;20092;-68
2022/09/29 05:47:24;;;;;;;0.45;0.45;;;;;;;9.11;78.20;99239.66;5062924;28;20040;-67
2022/09/29 05:49:49;;;;;;;0.40;0.40;;;;;;;9.14;77.86;99242.19;5064438;28;20104;-68
2022/09/29 05:52:15;;;;;;;0.40;0.40;;;;;;;9.17;77.38;99236.09;5064371;28;20104;-68
2022/09/29 05:54:40;;;;;;;0.40;0.40;;;;;;;9.15;76.95;99240.47;5064433;28;20579;-68
2022/09/29 05:57:05;;;;;;;0.40;0.40;;;;;;;9.07;77.18;99243.22;5064313;28;20016;-68
2022/09/29 05:59:31;;;;;;;0.40;0.40;;;;;;;9.00;76.93;99232.13;5064086;28;20495;-68
2022/09/29 06:02:01;;;;;;;0.40;0.40;;;;;;;9.17;77.14;99244.72;5064345;28;20324;-68
2022/09/29 06:04:27;;;;;;;0.40;0.40;;;;;;;9.42;77.22;99251.94;5064469;28;20086;-67
2022/09/29 06:06:54;;;;;;;0.45;0.45;;;;;;;9.70;77.13;99239.22;5063784;28;20111;-67
2022/09/29 06:09:19;;;;;;;0.40;0.40;;;;;;;9.93;76.86;99249.06;5062620;28;20025;-68
2022/09/29 06:11:44;;;;;;;0.40;0.40;;;;;;;10.12;75.91;99241.69;5064132;28;20024;-68
2022/09/29 06:14:10;;;;;;;0.40;0.40;;;;;;;10.31;75.14;99245.53;5063941;28;20111;-68
2022/09/29 06:16:35;;;;;;;0.50;0.50;;;;;;;10.50;74.58;99244.19;5064238;28;20036;-68
2022/09/29 06:19:01;;;;;;;0.82;0.82;;;;;;;10.76;73.88;99250.44;5063961;28;20045;-68
2022/09/29 06:21:28;;;;;;;0.40;0.40;;;;;;;10.96;73.33;99258.56;5064262;28;20033;-66
2022/09/29 06:23:54;;;;;;;0.40;0.40;;;;;;;11.14;72.09;99263.19;5064353;28;20016;-67
2022/09/29 06:26:21;;;;;;;0.50;0.50;;;;;;;11.20;71.59;99263.94;5066383;28;20025;-68
2022/09/29 06:28:47;;;;;;;0.35;0.35;;;;;;;11.31;71.12;99254.03;5066299;28;20053;-67
2022/09/29 06:31:16;;;;;;;0.40;0.40;;;;;;;11.43;70.57;99267.56;5066587;28;20032;-67
2022/09/29 06:33:43;;;;;;;0.35;0.35;;;;;;;11.55;70.52;99261.97;5067891;28;20100;-68
2022/09/29 06:39:08;;;;;;;0.40;0.40;;;;;;;11.77;69.21;99241.34;5067841;28;20051;-67
2022/09/29 06:41:34;;;;;;;3.20;1.58;;;;;;;12.08;68.32;99239.53;5067789;28;20047;-68
2022/09/29 06:44:00;;;;;;;0.40;0.40;;;;;;;12.33;68.69;99251.72;5067350;28;20029;-67
2022/09/29 06:46:25;;;;;;;0.30;0.30;;;;;;;12.52;67.70;99243.28;5067796;28;20051;-68
2022/09/29 06:48:52;;;;;;;0.50;0.50;;;;;;;12.80;66.74;99263.13;5067517;28;20040;-68
2022/09/29 06:51:21;;;;;;;0.38;0.38;;;;;;;13.06;66.53;99261.31;5067601;28;20025;-68
2022/09/29 06:53:46;;;;;;;0.40;0.40;;;;;;;12.77;64.95;99247.59;5067588;28;20139;-67
2022/09/29 06:56:12;;;;;;;0.40;0.40;;;;;;;12.57;64.87;99250.94;5067466;28;20079;-67
2022/09/29 06:58:37;;;;;;;0.38;0.38;;;;;;;12.50;65.19;99265.91;5067245;28;20107;-67
2022/09/29 07:01:04;;;;;;;0.40;0.40;;;;;;;12.63;64.53;99261.97;5067615;28;20029;-67
2022/09/29 07:03:30;;;;;;;0.40;0.40;;;;;;;12.72;64.46;99259.94;5067372;28;20044;-67
2022/09/29 07:05:56;;;;;;;0.30;0.30;;;;;;;12.91;64.66;99274.91;5065985;28;20032;-67
2022/09/29 07:08:21;;;;;;;0.88;0.88;;;;;;;13.04;63.07;99268.34;5065603;28;20093;-67
2022/09/29 07:10:47;;;;;;;0.40;0.40;;;;;;;13.23;62.67;99271.09;5067238;28;20426;-70
2022/09/29 07:13:12;;;;;;;0.40;0.40;;;;;;;13.21;61.87;99270.28;5067190;28;20487;-67
2022/09/29 07:15:38;;;;;;;0.40;0.40;;;;;;;13.20;62.16;99263.41;5067087;28;20092;-68
2022/09/29 07:18:03;;;;;;;0.40;0.40;;;;;;;13.28;61.71;99270.91;5066773;28;20045;-68
2022/09/29 07:20:30;;;;;;;0.30;0.30;;;;;;;13.33;61.27;99276.81;5067079;28;20080;-68
2022/09/29 07:22:56;;;;;;;0.30;0.30;;;;;;;13.28;61.03;99283.97;5067090;28;20045;-67
2022/09/29 07:25:23;;;;;;;0.40;0.40;;;;;;;13.18;60.95;99287.84;5066895;28;20049;-68
2022/09/29 07:27:50;;;;;;;0.40;0.40;;;;;;;13.18;60.67;99282.63;5065708;28;20021;-68
2022/09/29 07:30:16;;;;;;;0.30;0.30;;;;;;;13.10;61.21;99299.38;5064406;28;20088;-68
2022/09/29 07:32:41;;;;;;;0.40;0.40;;;;;;;13.04;60.66;99288.31;5067145;28;20037;-69
2022/09/29 07:35:07;;;;;;;0.40;0.40;;;;;;;12.81;61.39;99282.22;5066867;28;20024;-69
2022/09/29 07:37:32;;;;;;;0.40;0.40;;;;;;;12.76;61.46;99287.59;5065393;28;20017;-69
2022/09/29 07:39:58;;;;;;;0.40;0.40;;;;;;;12.79;62.31;99297.03;5065590;28;20029;-69
2022/09/29 07:42:23;;;;;;;0.40;0.40;;;;;;;12.87;61.98;99290.66;5066599;28;20020;-67
2022/09/29 07:44:49;;;;;;;0.30;0.30;;;;;;;12.89;61.11;99314.88;5066391;28;20035;-69
2022/09/29 07:47:14;;;;;;;0.40;0.40;;;;;;;12.70;61.95;99301.66;5066444;28;20024;-68
2022/09/29 07:49:40;;;;;;;0.40;0.40;;;;;;;12.58;62.04;99304.69;5066666;28;20021;-67
2022/09/29 07:52:06;;;;;;;0.40;0.40;;;;;;;12.56;61.97;99304.75;5066585;28;20100;-69
2022/09/29 07:54:31;;;;;;;0.40;0.40;;;;;;;12.57;62.52;99303.81;5066417;28;20025;-70
2022/09/29 07:56:59;;;;;;;0.40;0.40;;;;;;;12.56;62.47;99314.28;5066574;28;20032;-69
2022/09/29 07:59:25;;;;;;;0.40;0.40;;;;;;;12.65;62.75;99321.81;5065982;28;20029;-69
2022/09/29 08:01:51;;;;;;;0.40;0.40;;;;;;;12.61;62.67;99333.22;5066477;28;20017;-67
2022/09/29 08:04:16;;;;;;;0.40;0.40;;;;;;;12.64;61.97;99314.88;5066242;28;20021;-67
2022/09/29 08:06:42;;;;;;;0.30;0.30;;;;;;;12.61;62.56;99341.88;5066338;28;20060;-68
2022/09/29 08:09:07;;;;;;;0.40;0.40;;;;;;;12.77;61.90;99336.16;5065945;28;20032;-68
2022/09/29 08:11:37;;;;;;;0.40;0.40;;;;;;;12.94;60.17;99342.53;5066498;28;20025;-68
2022/09/29 08:14:02;;;;;;;0.40;0.40;;;;;;;12.66;61.01;99326.09;5066076;28;20108;-66
2022/09/29 08:16:29;;;;;;;0.30;0.30;;;;;;;12.73;61.00;99355.41;5066232;28;20036;-69
2022/09/29 08:18:54;;;;;;;0.40;0.40;;;;;;;12.80;60.78;99332.56;5065708;28;20045;-67
2022/09/29 08:21:19;;;;;;;0.85;0.85;;;;;;;12.67;61.23;99329.56;5065866;28;20047;-68
2022/09/29 08:23:45;;;;;;;1.63;1.52;;;;;;;12.71;61.37;99325.94;5066065;28;20041;-67
2022/09/29 08:26:13;;;;;;;0.45;0.45;;;;;;;12.78;61.07;99337.84;5065896;28;20037;-68
2022/09/29 08:28:39;;;;;;;0.43;0.43;;;;;;;12.91;61.58;99317.41;5065483;28;20043;-67
2022/09/29 08:31:07;;;;;;;0.40;0.40;;;;;;;13.27;61.03;99352.63;5065913;28;20021;-66
2022/09/29 08:33:33;;;;;;;0.30;0.30;;;;;;;13.54;59.94;99336.91;5065700;28;20021;-66
2022/09/29 08:36:00;;;;;;;0.50;0.50;;;;;;;13.44;58.79;99351.16;5065784;28;20021;-69
2022/09/29 08:38:26;;;;;;;0.30;0.30;;;;;;;13.19;59.48;99352.06;5065741;28;20465;-69
2022/09/29 08:40:55;;;;;;;0.40;0.40;;;;;;;13.00;60.25;99334.50;5065777;28;20033;-68
2022/09/29 08:43:29;;;;;;;0.40;0.40;;;;;;;13.09;60.29;99346.31;5065642;28;20037;-68
2022/09/29 08:46:07;;;;;;;0.40;0.40;;;;;;;13.31;59.89;99350.75;5063934;28;20093;-67
2022/09/29 08:48:37;;;;;;;0.50;0.50;;;;;;;13.39;59.42;99349.56;5065004;28;20032;-67
2022/09/29 08:51:06;;;;;;;0.30;0.30;;;;;;;13.50;59.54;99351.81;5065491;28;20028;-67
2022/09/29 08:53:37;;;;;;;0.35;0.35;;;;;;;13.82;58.45;99353.22;5065482;28;20103;-67
2022/09/29 08:56:12;;;;;;;0.40;0.40;;;;;;;13.96;57.78;99352.72;5065621;28;20335;-69
2022/09/29 08:58:38;;;;;;;0.30;0.30;;;;;;;14.02;57.75;99362.03;5065402;28;20028;-66
2022/09/29 09:01:51;;;;;;;0.40;0.40;;;;;;;14.37;57.85;99352.81;5065322;28;20024;-67
2022/09/29 09:04:34;;;;;;;0.40;0.40;;;;;;;14.66;56.33;99373.38;4983876;28;20023;-66
2022/09/29 09:07:15;;;;;;;0.30;0.30;;;;;;;14.69;56.27;99369.78;4983782;28;20039;-66
2022/09/29 09:10:02;;;;;;;0.50;0.50;;;;;;;14.89;55.26;99355.91;4983540;28;20039;-67
2022/09/29 09:12:30;;;;;;;0.30;0.30;;;;;;;15.07;55.30;99364.72;4983647;28;20045;-66
2022/09/29 09:15:08;;;;;;;0.40;0.40;;;;;;;15.42;54.74;99365.78;4983403;28;20086;-67
2022/09/29 09:17:50;;;;;;;0.40;0.40;;;;;;;15.72;53.43;99374.00;4983151;28;20538;-66
2022/09/29 09:20:31;;;;;;;0.30;0.30;;;;;;;15.71;52.64;99374.06;4983388;28;20035;-66
2022/09/29 09:23:09;;;;;;;0.57;0.57;;;;;;;15.98;52.61;99378.97;4983715;28;20066;-67
2022/09/29 09:25:40;;;;;;;0.30;0.30;;;;;;;16.31;52.41;99372.19;4983495;28;20034;-66
2022/09/29 09:28:17;;;;;;;0.47;0.47;;;;;;;16.56;51.88;99384.91;4982365;28;20519;-67
2022/09/29 09:30:46;;;;;;;0.30;0.30;;;;;;;16.76;50.08;99390.09;4982004;28;20046;-66
2022/09/29 09:33:21;;;;;;;0.85;0.85;;;;;;;16.51;50.40;99389.53;4982050;28;20068;-67
2022/09/29 09:35:59;;;;;;;0.32;0.32;;;;;;;16.46;51.29;99381.91;4983166;28;20142;-66
2022/09/29 09:38:32;;;;;;;0.30;0.30;;;;;;;16.57;50.23;99389.22;5035448;28;20099;-67
2022/09/29 09:41:00;;;;;;;0.30;0.30;;;;;;;16.62;50.82;99378.50;5064623;28;20028;-67
2022/09/29 09:43:32;;;;;;;0.30;0.30;;;;;;;16.83;49.91;99373.97;5064455;28;20108;-67
2022/09/29 09:46:22;;;;;;;0.40;0.40;;;;;;;16.97;50.06;99391.59;5064074;28;20027;-67
2022/09/29 09:49:19;;;;;;;0.30;0.30;;;;;;;16.81;49.50;99388.06;5064250;28;20056;-67
2022/09/29 09:51:53;;;;;;;0.30;0.30;;;;;;;16.35;50.34;99400.78;5064360;28;20052;-68
2022/09/29 09:54:40;;;;;;;0.30;0.30;;;;;;;15.65;50.36;99405.75;5064360;28;20025;-67
2022/09/29 09:57:13;;;;;;;0.30;0.30;;;;;;;15.03;52.57;99410.16;5063152;28;20370;-67
2022/09/29 09:59:50;;;;;;;1.33;1.25;;;;;;;14.87;53.16;99413.44;5063604;28;20045;-67
2022/09/29 10:02:19;;;;;;;0.75;0.75;;;;;;;14.79;53.07;99415.53;5064201;28;20033;-67
2022/09/29 10:04:48;;;;;;;0.32;0.32;;;;;;;15.10;52.93;99414.22;5064217;28;20033;-68
2022/09/29 10:07:13;;;;;;;0.30;0.30;;;;;;;15.53;52.71;99405.41;5063985;28;20036;-69
2022/09/29 10:09:39;;;;;;;0.40;0.40;;;;;;;15.82;52.31;99410.22;5063959;28;20070;-67
2022/09/29 10:12:04;;;;;;;1.50;1.40;;;;;;;16.16;51.35;99411.28;5064308;28;20017;-67
2022/09/29 10:14:31;;;;;;;0.30;0.30;;;;;;;16.08;51.06;99421.28;5062338;28;20492;-67
2022/09/29 10:17:02;;;;;;;0.30;0.30;;;;;;;16.14;51.36;99404.41;5064031;28;20016;-67
2022/09/29 10:19:57;;;;;;;0.28;0.28;;;;;;;16.41;50.41;99406.59;5063755;28;20039;-67
2022/09/29 10:22:25;;;;;;;0.30;0.30;;;;;;;16.41;49.84;99411.84;5063988;28;20068;-67
2022/09/29 10:24:55;;;;;;;0.85;0.85;;;;;;;16.32;49.88;99428.88;5064039;28;20086;-67
2022/09/29 10:27:24;;;;;;;0.30;0.30;;;;;;;16.25;49.67;99419.59;5064010;28;20097;-68
2022/09/29 10:29:51;;;;;;;0.30;0.30;;;;;;;15.56;50.43;99420.94;5063896;28;20017;-67
2022/09/29 10:32:36;;;;;;;0.40;0.40;;;;;;;14.57;51.99;99442.50;5063837;28;20021;-67
2022/09/29 10:35:17;;;;;;;0.40;0.40;;;;;;;14.86;53.64;99443.13;5063673;28;20082;-68
2022/09/29 10:37:47;;;;;;;0.40;0.40;;;;;;;15.27;52.92;99417.84;5063778;28;20047;-66
2022/09/29 10:40:20;;;;;;;0.30;0.30;;;;;;;15.89;52.02;99421.25;5063961;28;20265;-66
2022/09/29 10:42:49;;;;;;;0.40;0.40;;;;;;;16.13;51.01;99435.00;5063990;28;20467;-65
2022/09/29 10:45:22;;;;;;;0.30;0.30;;;;;;;16.44;49.73;99423.03;5062056;28;20520;-68
2022/09/29 10:47:47;;;;;;;0.30;0.30;;;;;;;16.39;49.63;99429.44;5062288;28;20033;-67
2022/09/29 10:50:19;;;;;;;0.30;0.30;;;;;;;16.58;49.36;99424.97;5063943;28;20036;-68
2022/09/29 10:53:05;;;;;;;;;;;;;;;16.72;48.59;99436.56;5064244;28;20492;-67
2022/09/29 10:55:35;;;;;;;0.30;0.30;;;;;;;16.62;49.26;99427.44;5063842;28;19930;-66
2022/09/29 10:58:18;;;;;;;0.30;0.30;;;;;;;17.07;48.20;99433.06;5063905;28;20067;-68
2022/09/29 11:00:46;;;;;;;0.25;0.25;;;;;;;16.68;48.57;99435.00;5063480;28;20055;-68
2022/09/29 11:03:30;;;;;;;0.47;0.47;;;;;;;16.88;48.63;99438.41;5063530;28;20048;-67
2022/09/29 11:06:02;;;;;;;0.40;0.40;;;;;;;16.69;48.19;99440.16;5063646;28;20052;-67
2022/09/29 11:08:29;;;;;;;0.30;0.30;;;;;;;16.85;48.20;99432.38;5063484;28;20081;-68
2022/09/29 11:11:26;;;;;;;0.75;0.75;;;;;;;15.71;49.03;99445.59;5063615;28;20041;-67
2022/09/29 11:13:52;;;;;;;0.40;0.40;;;;;;;15.04;50.76;99451.09;5065854;28;20059;-68
2022/09/29 11:16:25;;;;;;;0.57;0.57;;;;;;;14.54;52.06;99458.31;5067087;28;20025;-68
2022/09/29 11:18:52;;;;;;;0.40;0.40;;;;;;;14.24;53.02;99453.41;5066943;28;20045;-67
2022/09/29 11:21:40;;;;;;;0.30;0.30;;;;;;;13.88;53.33;99454.75;5065951;28;20024;-68
2022/09/29 11:24:30;;;;;;;0.40;0.40;;;;;;;13.49;54.04;99453.53;5067079;28;20055;-68
2022/09/29 11:27:17;;;;;;;0.40;0.40;;;;;;;13.24;55.02;99446.56;5066057;28;20021;-68
2022/09/29 11:30:00;;;;;;;0.40;0.40;;;;;;;13.17;55.68;99438.13;5065904;28;20056;-68
2022/09/29 11:32:48;;;;;;;0.40;0.40;;;;;;;13.19;55.79;99451.97;5066873;28;20093;-67
2022/09/29 11:35:39;;;;;;;0.40;0.40;;;;;;;13.13;55.59;99463.41;5066902;28;20047;-67
2022/09/29 11:38:27;;;;;;;0.50;0.50;;;;;;;13.05;55.85;99459.38;5066700;28;20021;-68
2022/09/29 11:41:03;;;;;;;10.45;2.05;;;;;;;12.89;56.30;99468.56;5066896;28;20029;-66
2022/09/29 11:43:50;;;;;;;0.30;0.30;;;;;;;12.91;56.79;99467.69;5066730;28;20089;-67
2022/09/29 11:46:24;;;;;;;0.40;0.40;;;;;;;13.02;56.89;99471.59;5066911;28;20029;-67
2022/09/29 11:48:59;;;;;;;0.40;0.40;;;;;;;13.20;56.76;99466.69;5066558;28;20017;-67
2022/09/29 11:51:51;;;;;;;0.40;0.40;;;;;;;13.28;56.33;99469.00;5065329;28;20024;-67
2022/09/29 11:54:40;;;;;;;0.50;0.50;;;;;;;13.36;56.84;99487.84;5058009;28;20037;-68
2022/09/29 11:57:25;;;;;;;0.40;0.40;;;;;;;13.27;56.44;99469.94;5066566;28;20265;-68